Time;durP1;ratioP1;P1;durP2;ratioP2;P2;SDS_P1;SDS_P2;PMS_P1;PMS_P2;Temp;Humidity;BMP_temperature;BMP_pressure;BME280_temperature;BME280_humidity;BME280_pressure;Samples;Min_cycle;Max_cycle;Signal;HPM_P1;HPM_P2
2022/04/23 00:00:45;;;;;;;29.90;16.83;;;;;;;;;;5008469;28;20225;-83
2022/04/23 00:03:14;;;;;;;27.87;15.17;;;;;;;;;;5007619;28;20660;-85
2022/04/23 00:05:42;;;;;;;29.90;16.47;;;;;;;;;;5005891;28;20672;-85
2022/04/23 00:08:09;;;;;;;31.77;17.57;;;;;;;;;;5010491;28;20255;-84
2022/04/23 00:10:39;;;;;;;33.30;17.57;;;;;;;;;;5010697;28;20225;-82
2022/04/23 00:13:06;;;;;;;32.27;17.03;;;;;;;;;;5009208;28;20216;-83
2022/04/23 00:15:37;;;;;;;31.87;18.20;;;;;;;;;;5010012;28;20270;-84
2022/04/23 00:18:06;;;;;;;34.93;17.47;;;;;;;;;;5005543;28;20249;-85
2022/04/23 00:20:35;;;;;;;30.73;16.90;;;;;;;;;;5011065;28;20229;-86
2022/04/23 00:23:02;;;;;;;30.83;18.13;;;;;;;;;;5008848;28;20212;-86
2022/04/23 00:25:30;;;;;;;30.57;15.53;;;;;;;;;;5008096;28;20619;-85
2022/04/23 00:27:57;;;;;;;28.53;15.90;;;;;;;;;;5011121;28;20596;-86
2022/04/23 00:30:24;;;;;;;30.20;17.00;;;;;;;;;;5005499;28;20221;-86
2022/04/23 00:32:51;;;;;;;35.33;18.63;;;;;;;;;;5013511;28;20788;-85
2022/04/23 00:35:20;;;;;;;30.23;16.53;;;;;;;;;;5012458;28;20231;-86
2022/04/23 00:37:47;;;;;;;31.93;17.57;;;;;;;;;;5016998;28;20473;-85
2022/04/23 00:40:17;;;;;;;26.87;15.37;;;;;;;;;;5022578;28;20250;-83
2022/04/23 00:42:48;;;;;;;32.63;17.67;;;;;;;;;;5026798;28;20197;-82
2022/04/23 00:45:16;;;;;;;30.37;17.00;;;;;;;;;;5004982;28;20205;-85
2022/04/23 00:47:43;;;;;;;29.97;17.07;;;;;;;;;;5012102;28;20582;-85
2022/04/23 00:50:11;;;;;;;30.80;16.60;;;;;;;;;;5005753;28;20323;-85
2022/04/23 00:52:40;;;;;;;27.77;16.80;;;;;;;;;;5008331;28;20303;-85
2022/04/23 00:55:08;;;;;;;32.97;17.57;;;;;;;;;;5010948;28;20268;-85
2022/04/23 00:57:36;;;;;;;29.57;16.53;;;;;;;;;;5011605;28;20200;-85
2022/04/23 01:00:06;;;;;;;32.30;17.40;;;;;;;;;;5008120;28;20670;-85
2022/04/23 01:02:33;;;;;;;29.60;16.70;;;;;;;;;;5012649;28;20295;-86
2022/04/23 01:05:00;;;;;;;29.60;16.50;;;;;;;;;;5014372;28;20262;-84
2022/04/23 01:07:28;;;;;;;29.03;15.93;;;;;;;;;;5013671;28;20216;-86
2022/04/23 01:09:56;;;;;;;27.90;15.33;;;;;;;;;;5013999;28;20204;-86
2022/04/23 01:12:24;;;;;;;27.87;16.27;;;;;;;;;;5013600;28;20196;-87
2022/04/23 01:14:57;;;;;;;28.10;15.57;;;;;;;;;;5014771;28;20199;-84
2022/04/23 01:17:25;;;;;;;27.53;16.10;;;;;;;;;;5015711;28;20221;-85
2022/04/23 01:19:52;;;;;;;29.43;16.17;;;;;;;;;;5006622;28;20213;-86
2022/04/23 01:22:21;;;;;;;28.23;16.10;;;;;;;;;;5008921;28;20196;-84
2022/04/23 01:24:50;;;;;;;25.27;15.30;;;;;;;;;;5009720;28;20216;-85
2022/04/23 01:27:17;;;;;;;28.10;16.40;;;;;;;;;;5012559;28;20235;-85
2022/04/23 01:29:44;;;;;;;25.53;14.87;;;;;;;;;;5010295;28;20225;-86
2022/04/23 01:32:14;;;;;;;25.50;15.03;;;;;;;;;;5008572;28;20212;-85
2022/04/23 01:34:41;;;;;;;28.10;16.10;;;;;;;;;;5014482;28;20223;-85
2022/04/23 01:37:08;;;;;;;30.17;16.07;;;;;;;;;;5008013;28;20748;-86
2022/04/23 01:39:37;;;;;;;26.90;16.00;;;;;;;;;;5011794;28;20208;-85
2022/04/23 01:42:04;;;;;;;27.87;15.57;;;;;;;;;;5006146;28;20266;-85
2022/04/23 01:44:31;;;;;;;26.30;16.47;;;;;;;;;;5000712;28;20259;-84
2022/04/23 01:46:59;;;;;;;30.00;16.13;;;;;;;;;;5007770;28;20192;-85
2022/04/23 01:49:26;;;;;;;28.83;15.57;;;;;;;;;;5011340;28;20216;-85
2022/04/23 01:52:25;;;;;;;33.57;16.87;;;;;;;;;;5013043;23;20643;-86
2022/04/23 01:54:55;;;;;;;29.63;15.67;;;;;;;;;;4979689;28;20214;-86
2022/04/23 01:57:23;;;;;;;25.50;15.23;;;;;;;;;;4978682;28;20238;-86
2022/04/23 01:59:53;;;;;;;28.33;16.03;;;;;;;;;;4976791;28;20209;-86
2022/04/23 02:02:23;;;;;;;27.07;15.43;;;;;;;;;;4976262;28;20305;-85
2022/04/23 02:05:10;;;;;;;29.07;16.40;;;;;;;;;;4975332;28;20217;-86
2022/04/23 02:07:39;;;;;;;34.43;17.43;;;;;;;;;;4978471;28;20206;-86
2022/04/23 02:10:10;;;;;;;28.30;16.40;;;;;;;;;;4971338;28;20293;-84
2022/04/23 02:12:39;;;;;;;33.47;17.37;;;;;;;;;;4974994;28;20245;-85
2022/04/23 02:15:07;;;;;;;28.03;15.73;;;;;;;;;;4973296;28;20217;-86
2022/04/23 02:17:36;;;;;;;36.67;17.80;;;;;;;;;;4973833;28;20210;-85
2022/04/23 02:20:04;;;;;;;34.77;17.17;;;;;;;;;;4970640;28;20225;-84
2022/04/23 02:22:32;;;;;;;33.47;17.60;;;;;;;;;;4981055;28;20261;-83
2022/04/23 02:25:00;;;;;;;28.10;15.37;;;;;;;;;;4973902;28;20234;-86
2022/04/23 02:27:29;;;;;;;31.00;16.50;;;;;;;;;;4973138;28;20634;-84
2022/04/23 02:29:56;;;;;;;30.47;16.80;;;;;;;;;;4970134;28;20646;-85
2022/04/23 02:32:23;;;;;;;30.87;17.60;;;;;;;;;;4972953;28;20258;-86
2022/04/23 02:34:51;;;;;;;30.70;17.00;;;;;;;;;;4974876;28;20744;-87
2022/04/23 02:37:18;;;;;;;30.00;17.57;;;;;;;;;;4970037;28;20213;-86
2022/04/23 02:39:45;;;;;;;29.60;16.00;;;;;;;;;;4974263;28;20963;-84
2022/04/23 02:42:13;;;;;;;31.03;17.20;;;;;;;;;;4973937;28;20240;-85
2022/04/23 02:44:41;;;;;;;31.57;17.57;;;;;;;;;;4973550;28;20210;-84
2022/04/23 02:47:09;;;;;;;28.97;16.17;;;;;;;;;;4972000;28;20214;-85
2022/04/23 02:49:38;;;;;;;30.43;16.30;;;;;;;;;;4976709;28;20202;-86
2022/04/23 02:52:06;;;;;;;27.40;16.00;;;;;;;;;;4973628;28;20698;-86
2022/04/23 02:54:33;;;;;;;29.60;16.13;;;;;;;;;;4976546;28;20662;-86
2022/04/23 02:57:01;;;;;;;28.47;16.07;;;;;;;;;;4971914;28;20278;-86
2022/04/23 02:59:28;;;;;;;29.27;16.23;;;;;;;;;;4970771;28;20311;-85
2022/04/23 03:01:57;;;;;;;30.50;17.27;;;;;;;;;;4975858;28;20237;-86
2022/04/23 03:04:25;;;;;;;28.87;16.83;;;;;;;;;;4974872;28;20237;-84
2022/04/23 03:06:55;;;;;;;27.67;15.93;;;;;;;;;;4974823;28;20210;-85
2022/04/23 03:09:23;;;;;;;29.20;16.10;;;;;;;;;;4979251;28;20240;-85
2022/04/23 03:11:50;;;;;;;30.90;16.77;;;;;;;;;;4975381;28;20221;-85
2022/04/23 03:14:19;;;;;;;32.97;17.57;;;;;;;;;;4973027;28;20211;-84
2022/04/23 03:16:46;;;;;;;28.03;16.17;;;;;;;;;;4969911;28;20300;-85
2022/04/23 03:19:15;;;;;;;27.43;16.27;;;;;;;;;;4974272;28;20218;-84
2022/04/23 03:21:45;;;;;;;28.57;15.53;;;;;;;;;;4976396;28;20261;-86
2022/04/23 03:24:12;;;;;;;30.60;16.47;;;;;;;;;;4974430;28;20221;-84
2022/04/23 03:26:40;;;;;;;27.60;15.73;;;;;;;;;;4969574;28;20634;-84
2022/04/23 03:29:07;;;;;;;28.30;16.03;;;;;;;;;;4974672;28;20215;-85
2022/04/23 03:31:34;;;;;;;26.53;15.50;;;;;;;;;;4974551;28;20245;-85
2022/04/23 03:34:02;;;;;;;28.73;15.90;;;;;;;;;;4975050;28;20234;-85
2022/04/23 03:36:31;;;;;;;29.00;15.50;;;;;;;;;;4986566;28;20207;-87
2022/04/23 03:38:58;;;;;;;26.70;15.47;;;;;;;;;;4988024;28;20198;-87
2022/04/23 03:41:26;;;;;;;27.30;14.93;;;;;;;;;;4978625;28;20289;-84
2022/04/23 03:43:54;;;;;;;28.03;15.53;;;;;;;;;;4968851;28;20301;-86
2022/04/23 03:46:22;;;;;;;27.23;15.33;;;;;;;;;;4969653;28;20646;-84
2022/04/23 03:48:49;;;;;;;27.90;16.30;;;;;;;;;;4970825;28;20221;-84
2022/04/23 03:51:16;;;;;;;28.83;16.00;;;;;;;;;;4970813;28;20225;-84
2022/04/23 03:53:45;;;;;;;30.87;15.77;;;;;;;;;;4966037;28;20222;-85
2022/04/23 03:56:13;;;;;;;30.80;16.37;;;;;;;;;;4973296;28;20664;-85
2022/04/23 03:58:41;;;;;;;30.40;16.10;;;;;;;;;;4975183;28;20206;-85
2022/04/23 04:01:08;;;;;;;26.63;15.47;;;;;;;;;;4973783;28;20233;-85
2022/04/23 04:03:36;;;;;;;33.60;16.90;;;;;;;;;;4971481;28;20214;-85
2022/04/23 04:06:04;;;;;;;28.20;16.27;;;;;;;;;;4977170;28;20197;-86
2022/04/23 04:08:31;;;;;;;29.60;17.03;;;;;;;;;;4975521;28;20241;-84
2022/04/23 04:11:03;;;;;;;30.67;16.73;;;;;;;;;;4978527;28;20246;-86
2022/04/23 04:13:31;;;;;;;31.27;17.03;;;;;;;;;;4975124;28;20289;-85
2022/04/23 04:15:59;;;;;;;29.93;16.53;;;;;;;;;;4969570;28;20215;-84
2022/04/23 04:18:27;;;;;;;31.43;17.33;;;;;;;;;;4969471;28;20209;-84
2022/04/23 04:20:55;;;;;;;33.50;17.27;;;;;;;;;;4966498;28;20238;-84
2022/04/23 04:23:24;;;;;;;31.50;17.50;;;;;;;;;;4972224;28;20213;-85
2022/04/23 04:25:53;;;;;;;29.57;16.83;;;;;;;;;;4972883;28;20218;-84
2022/04/23 04:28:22;;;;;;;32.53;16.90;;;;;;;;;;4974359;28;20691;-85
2022/04/23 04:33:35;;;;;;;29.80;16.20;;;;;;;;;;4971116;28;20216;-85
2022/04/23 04:36:03;;;;;;;31.70;17.10;;;;;;;;;;4965892;28;20642;-84
2022/04/23 04:38:30;;;;;;;29.80;17.23;;;;;;;;;;4974277;28;20190;-87
2022/04/23 04:40:58;;;;;;;31.70;16.33;;;;;;;;;;4972895;28;20678;-85
2022/04/23 04:43:33;;;;;;;30.70;17.13;;;;;;;;;;4973785;28;20695;-84
2022/04/23 04:46:03;;;;;;;29.93;16.37;;;;;;;;;;4970475;28;20335;-84
2022/04/23 04:48:31;;;;;;;33.00;17.53;;;;;;;;;;4968961;28;20732;-84
2022/04/23 04:50:58;;;;;;;29.83;17.00;;;;;;;;;;4970037;28;20266;-84
2022/04/23 04:53:25;;;;;;;30.67;17.20;;;;;;;;;;4968182;28;20213;-84
2022/04/23 04:55:52;;;;;;;32.37;16.83;;;;;;;;;;4969659;28;20693;-84
2022/04/23 04:58:20;;;;;;;28.97;16.83;;;;;;;;;;4974861;28;20210;-85
2022/04/23 05:00:49;;;;;;;31.87;17.00;;;;;;;;;;4987344;28;20245;-83
2022/04/23 05:03:16;;;;;;;29.33;17.00;;;;;;;;;;4985652;28;20222;-83
2022/04/23 05:05:44;;;;;;;30.57;17.43;;;;;;;;;;4974773;28;20212;-85
2022/04/23 05:08:14;;;;;;;31.27;17.40;;;;;;;;;;4968684;28;20210;-86
2022/04/23 05:10:46;;;;;;;30.53;17.37;;;;;;;;;;4971784;28;20237;-87
2022/04/23 05:13:16;;;;;;;31.10;16.70;;;;;;;;;;4972487;28;20658;-88
2022/04/23 05:15:44;;;;;;;27.30;16.10;;;;;;;;;;4971077;28;20202;-87
2022/04/23 05:18:15;;;;;;;28.90;16.43;;;;;;;;;;4968608;28;20216;-86
2022/04/23 05:20:42;;;;;;;29.87;17.30;;;;;;;;;;4965972;28;20221;-85
2022/04/23 05:23:13;;;;;;;28.03;16.83;;;;;;;;;;4970242;28;20230;-86
2022/04/23 05:25:40;;;;;;;30.77;17.07;;;;;;;;;;4971437;28;20202;-84
2022/04/23 05:28:07;;;;;;;30.10;17.13;;;;;;;;;;4970482;28;20550;-85
2022/04/23 05:30:38;;;;;;;30.80;17.13;;;;;;;;;;4968950;28;20225;-85
2022/04/23 05:33:05;;;;;;;31.27;17.80;;;;;;;;;;4968010;28;20641;-86
2022/04/23 05:35:34;;;;;;;32.87;18.17;;;;;;;;;;4967134;28;20288;-85
2022/04/23 05:38:05;;;;;;;31.27;18.53;;;;;;;;;;4969485;28;20209;-86
2022/04/23 05:40:32;;;;;;;30.87;17.73;;;;;;;;;;4967088;28;20230;-85
2022/04/23 05:43:00;;;;;;;33.97;18.53;;;;;;;;;;4969090;28;20238;-84
2022/04/23 05:45:27;;;;;;;32.40;18.70;;;;;;;;;;4974099;28;20258;-82
2022/04/23 05:47:55;;;;;;;37.37;19.20;;;;;;;;;;4987256;28;20791;-85
2022/04/23 05:50:28;;;;;;;38.27;19.47;;;;;;;;;;4979247;28;20314;-87
2022/04/23 05:53:00;;;;;;;35.03;19.57;;;;;;;;;;4971688;28;20951;-86
2022/04/23 05:55:30;;;;;;;35.77;20.07;;;;;;;;;;4973394;28;20228;-86
2022/04/23 05:57:57;;;;;;;40.43;20.03;;;;;;;;;;4969648;28;20665;-85
2022/04/23 06:00:25;;;;;;;33.43;19.17;;;;;;;;;;4967022;28;20230;-85
2022/04/23 06:02:52;;;;;;;31.93;19.47;;;;;;;;;;4969587;28;20234;-85
2022/04/23 06:05:19;;;;;;;32.87;18.93;;;;;;;;;;4970288;28;20214;-85
2022/04/23 06:07:47;;;;;;;32.77;19.67;;;;;;;;;;4965680;28;20218;-85
2022/04/23 06:10:22;;;;;;;34.50;18.50;;;;;;;;;;4962665;28;20300;-86
2022/04/23 06:12:49;;;;;;;32.43;18.20;;;;;;;;;;4963724;28;20220;-86
2022/04/23 06:15:16;;;;;;;37.20;19.17;;;;;;;;;;4968982;28;20285;-88
2022/04/23 06:17:45;;;;;;;30.83;18.33;;;;;;;;;;4969904;28;20207;-87
2022/04/23 06:20:15;;;;;;;32.83;19.07;;;;;;;;;;4967137;28;20210;-87
2022/04/23 06:22:42;;;;;;;33.53;18.63;;;;;;;;;;4974859;28;20245;-86
2022/04/23 06:25:10;;;;;;;33.90;19.27;;;;;;;;;;4972150;28;20276;-87
2022/04/23 06:27:44;;;;;;;36.40;18.70;;;;;;;;;;4971965;28;20221;-86
2022/04/23 06:30:12;;;;;;;34.40;18.37;;;;;;;;;;4973027;28;20202;-86
2022/04/23 06:32:41;;;;;;;32.43;18.60;;;;;;;;;;4969507;28;20204;-85
2022/04/23 06:35:09;;;;;;;35.83;18.90;;;;;;;;;;4976014;28;20297;-86
2022/04/23 06:37:41;;;;;;;36.47;18.60;;;;;;;;;;4976561;28;20557;-86
2022/04/23 06:40:11;;;;;;;32.97;18.50;;;;;;;;;;4974923;28;20220;-85
2022/04/23 06:42:38;;;;;;;32.37;18.40;;;;;;;;;;4977737;28;20233;-85
2022/04/23 06:45:08;;;;;;;28.43;16.73;;;;;;;;;;4975772;28;20214;-85
2022/04/23 06:47:38;;;;;;;29.83;16.43;;;;;;;;;;4970353;28;20226;-87
2022/04/23 06:50:09;;;;;;;28.57;16.17;;;;;;;;;;4976753;28;20214;-84
2022/04/23 06:52:38;;;;;;;34.73;17.00;;;;;;;;;;4975469;28;20217;-85
2022/04/23 06:55:06;;;;;;;27.70;16.17;;;;;;;;;;4985654;28;20224;-87
2022/04/23 06:57:35;;;;;;;28.90;16.10;;;;;;;;;;4980065;28;20224;-86
2022/04/23 07:00:03;;;;;;;28.57;17.17;;;;;;;;;;4976637;28;20210;-86
2022/04/23 07:02:32;;;;;;;29.93;17.93;;;;;;;;;;4979795;28;20226;-87
2022/04/23 07:04:59;;;;;;;28.47;16.77;;;;;;;;;;4988987;28;20193;-85
2022/04/23 07:07:26;;;;;;;27.37;16.93;;;;;;;;;;4990448;28;20241;-86
2022/04/23 07:09:54;;;;;;;30.80;16.13;;;;;;;;;;4987375;28;20206;-87
2022/04/23 07:12:22;;;;;;;30.07;16.23;;;;;;;;;;4981246;28;20325;-86
2022/04/23 07:14:49;;;;;;;28.07;16.53;;;;;;;;;;4968493;28;20229;-86
2022/04/23 07:17:24;;;;;;;27.00;16.90;;;;;;;;;;4970095;28;20229;-85
2022/04/23 07:19:54;;;;;;;29.70;17.43;;;;;;;;;;4971310;28;20261;-85
2022/04/23 07:22:29;;;;;;;29.80;16.70;;;;;;;;;;4972305;28;20226;-85
2022/04/23 07:24:58;;;;;;;29.77;18.17;;;;;;;;;;4975996;28;20201;-87
2022/04/23 07:27:27;;;;;;;28.27;16.97;;;;;;;;;;4971429;28;20210;-85
2022/04/23 07:29:54;;;;;;;31.07;17.87;;;;;;;;;;4967606;28;20264;-86
2022/04/23 07:32:22;;;;;;;29.20;17.33;;;;;;;;;;4972707;28;20267;-85
2022/04/23 07:37:38;;;;;;;33.13;18.50;;;;;;;;;;4971098;28;20209;-84
2022/04/23 07:40:10;;;;;;;32.27;19.03;;;;;;;;;;4974904;28;20249;-86
2022/04/23 07:42:38;;;;;;;32.63;18.10;;;;;;;;;;4971688;28;20237;-86
2022/04/23 07:45:06;;;;;;;31.70;18.60;;;;;;;;;;4971882;28;20244;-85
2022/04/23 07:47:33;;;;;;;33.93;18.93;;;;;;;;;;4975938;28;20209;-86
2022/04/23 07:50:04;;;;;;;34.40;18.83;;;;;;;;;;4972340;28;20206;-86
2022/04/23 07:52:31;;;;;;;31.90;18.77;;;;;;;;;;4995556;23;20698;-78
2022/04/23 07:55:00;;;;;;;30.80;18.00;;;;;;;;;;4980430;28;20224;-78
2022/04/23 07:57:28;;;;;;;32.93;18.27;;;;;;;;;;4981065;28;20205;-78
2022/04/23 07:59:56;;;;;;;31.63;18.50;;;;;;;;;;4984786;28;20305;-78
2022/04/23 08:02:23;;;;;;;30.90;18.17;;;;;;;;;;4963123;28;20233;-78
2022/04/23 08:04:50;;;;;;;33.97;18.63;;;;;;;;;;4962211;28;20288;-78
2022/04/23 08:07:17;;;;;;;32.43;18.50;;;;;;;;;;4959826;28;20710;-79
2022/04/23 08:09:45;;;;;;;30.20;17.40;;;;;;;;;;4962541;28;20198;-79
2022/04/23 08:12:13;;;;;;;29.00;16.77;;;;;;;;;;4967074;28;20245;-78
2022/04/23 08:14:42;;;;;;;28.77;16.20;;;;;;;;;;4970737;28;20304;-78
2022/04/23 08:17:09;;;;;;;25.20;14.67;;;;;;;;;;4967655;28;20225;-78
2022/04/23 08:19:37;;;;;;;30.07;17.77;;;;;;;;;;4962290;28;20213;-77
2022/04/23 08:22:04;;;;;;;30.63;17.03;;;;;;;;;;4956635;28;20277;-77
2022/04/23 08:24:31;;;;;;;32.47;17.57;;;;;;;;;;4961263;28;20213;-77
2022/04/23 08:26:59;;;;;;;32.80;18.97;;;;;;;;;;4963235;28;20213;-77
2022/04/23 08:32:12;;;;;;;30.63;17.93;;;;;;;;;;4960154;28;20336;-77
2022/04/23 08:34:39;;;;;;;31.37;17.83;;;;;;;;;;4971116;28;20289;-77
2022/04/23 08:37:06;;;;;;;33.60;18.60;;;;;;;;;;4966712;28;20284;-77
2022/04/23 08:39:34;;;;;;;32.97;19.30;;;;;;;;;;4958233;28;20273;-77
2022/04/23 08:42:02;;;;;;;31.47;18.87;;;;;;;;;;4963273;28;20570;-78
2022/04/23 08:44:31;;;;;;;32.23;19.20;;;;;;;;;;4964505;28;20238;-78
2022/04/23 08:46:59;;;;;;;31.73;18.33;;;;;;;;;;4959402;28;20257;-78
2022/04/23 08:49:31;;;;;;;32.23;18.27;;;;;;;;;;4965079;28;20229;-78
2022/04/23 08:52:03;;;;;;;35.03;19.63;;;;;;;;;;4960420;28;20245;-78
2022/04/23 08:54:30;;;;;;;33.50;18.17;;;;;;;;;;4962313;28;20293;-78
2022/04/23 08:56:57;;;;;;;36.23;20.07;;;;;;;;;;4961309;28;20298;-77
2022/04/23 08:59:25;;;;;;;38.73;20.27;;;;;;;;;;4964444;28;20237;-78
2022/04/23 09:01:53;;;;;;;34.93;19.47;;;;;;;;;;4963186;28;20244;-77
2022/04/23 09:04:20;;;;;;;32.10;18.83;;;;;;;;;;4966722;28;20230;-78
2022/04/23 09:06:48;;;;;;;38.90;20.87;;;;;;;;;;4963898;28;20210;-77
2022/04/23 09:09:17;;;;;;;39.33;20.10;;;;;;;;;;4962327;28;20218;-77
2022/04/23 09:11:46;;;;;;;35.83;20.67;;;;;;;;;;4963175;28;20229;-78
2022/04/23 09:14:24;;;;;;;35.77;20.37;;;;;;;;;;4964196;28;20206;-78
2022/04/23 09:25:15;;;;;;;37.27;20.37;;;;;;;;;;4966730;28;20213;-78
2022/04/23 09:27:43;;;;;;;35.83;19.50;;;;;;;;;;4965341;28;20237;-78
2022/04/23 09:30:11;;;;;;;36.33;20.13;;;;;;;;;;4963917;28;20261;-77
2022/04/23 09:32:38;;;;;;;34.83;19.77;;;;;;;;;;4965023;28;20216;-78
2022/04/23 09:35:11;;;;;;;39.90;20.07;;;;;;;;;;4953259;28;20751;-78
2022/04/23 09:40:24;;;;;;;34.93;16.43;;;;;;;;;;4961975;28;20212;-80
2022/04/23 09:43:01;;;;;;;36.93;19.80;;;;;;;;;;4968376;28;20221;-79
2022/04/23 09:45:29;;;;;;;38.00;20.60;;;;;;;;;;4960564;28;20472;-81
2022/04/23 09:47:57;;;;;;;39.90;20.87;;;;;;;;;;4963390;28;20216;-80
2022/04/23 09:50:26;;;;;;;42.23;21.30;;;;;;;;;;4961296;28;20230;-79
2022/04/23 09:52:53;;;;;;;35.63;19.57;;;;;;;;;;4967508;28;20680;-79
2022/04/23 09:55:21;;;;;;;35.77;19.33;;;;;;;;;;4964511;28;20218;-80
2022/04/23 09:57:49;;;;;;;34.53;19.83;;;;;;;;;;4968863;28;20240;-80
2022/04/23 10:00:17;;;;;;;36.70;19.90;;;;;;;;;;4971130;28;20397;-80
2022/04/23 10:02:46;;;;;;;39.03;21.00;;;;;;;;;;4970233;28;20574;-80
2022/04/23 10:05:18;;;;;;;38.07;20.17;;;;;;;;;;4967413;28;20212;-82
2022/04/23 10:07:49;;;;;;;39.07;20.67;;;;;;;;;;4970514;28;20202;-80
2022/04/23 10:10:17;;;;;;;38.33;19.87;;;;;;;;;;4958712;28;20297;-78
2022/04/23 10:12:45;;;;;;;34.67;19.70;;;;;;;;;;4959013;28;20216;-78
2022/04/23 10:15:14;;;;;;;37.07;19.17;;;;;;;;;;4961308;28;20206;-79
2022/04/23 10:17:42;;;;;;;41.70;20.67;;;;;;;;;;4962051;28;20232;-77
2022/04/23 10:20:11;;;;;;;38.30;21.03;;;;;;;;;;4959611;28;20213;-80
2022/04/23 10:22:41;;;;;;;38.27;20.87;;;;;;;;;;4959946;28;20571;-77
2022/04/23 10:25:17;;;;;;;40.57;20.90;;;;;;;;;;4961296;28;20763;-78
2022/04/23 10:27:44;;;;;;;42.50;21.97;;;;;;;;;;4962078;28;20245;-78
2022/04/23 10:30:12;;;;;;;40.17;22.23;;;;;;;;;;4961412;28;20696;-80
2022/04/23 10:32:40;;;;;;;40.87;22.13;;;;;;;;;;4963918;28;20277;-79
2022/04/23 10:35:22;;;;;;;48.30;23.73;;;;;;;;;;4960723;28;20635;-76
2022/04/23 10:37:50;;;;;;;44.03;23.27;;;;;;;;;;4960877;28;20581;-77
2022/04/23 10:40:19;;;;;;;40.70;22.50;;;;;;;;;;4960759;28;20210;-79
2022/04/23 10:43:05;;;;;;;40.43;22.43;;;;;;;;;;4957662;28;20208;-79
2022/04/23 10:45:35;;;;;;;42.33;23.70;;;;;;;;;;4960132;28;20297;-79
2022/04/23 10:48:17;;;;;;;46.20;23.73;;;;;;;;;;4961994;28;20285;-79
2022/04/23 10:50:59;;;;;;;46.10;24.03;;;;;;;;;;4959977;28;20813;-79
2022/04/23 10:53:28;;;;;;;43.17;22.83;;;;;;;;;;4965384;28;20210;-78
2022/04/23 10:56:11;;;;;;;46.13;23.77;;;;;;;;;;4960539;28;20206;-78
2022/04/23 10:58:40;;;;;;;41.80;23.07;;;;;;;;;;4960624;28;20312;-77
2022/04/23 11:01:31;;;;;;;43.77;22.27;;;;;;;;;;4958882;28;20678;-78
2022/04/23 11:03:59;;;;;;;42.27;23.07;;;;;;;;;;4945420;28;20249;-80
2022/04/23 11:12:22;;;;;;;45.57;23.27;;;;;;;;;;4942236;28;20280;-78
2022/04/23 11:14:53;;;;;;;46.63;23.97;;;;;;;;;;4959295;28;20233;-79
2022/04/23 11:17:22;;;;;;;45.70;23.67;;;;;;;;;;4957459;28;20214;-78
2022/04/23 11:19:52;;;;;;;46.43;24.03;;;;;;;;;;4959973;28;20214;-81
2022/04/23 11:22:19;;;;;;;49.00;24.00;;;;;;;;;;4960773;28;20767;-78
2022/04/23 11:24:48;;;;;;;41.23;22.57;;;;;;;;;;4963061;28;20312;-79
2022/04/23 11:27:25;;;;;;;48.53;24.63;;;;;;;;;;4964255;28;20202;-81
2022/04/23 11:29:53;;;;;;;43.33;23.40;;;;;;;;;;4965646;28;20234;-80
2022/04/23 11:32:26;;;;;;;46.17;23.37;;;;;;;;;;4966181;28;20448;-80
2022/04/23 11:34:57;;;;;;;50.63;24.57;;;;;;;;;;4964135;28;20540;-80
2022/04/23 11:37:29;;;;;;;46.30;23.50;;;;;;;;;;4963739;28;20213;-82
2022/04/23 11:40:05;;;;;;;44.60;23.57;;;;;;;;;;4967064;28;20206;-79
2022/04/23 11:42:38;;;;;;;43.47;23.07;;;;;;;;;;4965427;28;20300;-81
2022/04/23 11:45:06;;;;;;;41.33;22.73;;;;;;;;;;4965873;28;20260;-78
2022/04/23 11:47:34;;;;;;;43.80;21.73;;;;;;;;;;4960960;28;20265;-79
2022/04/23 11:50:11;;;;;;;40.77;21.77;;;;;;;;;;4963416;28;20878;-79
2022/04/23 11:52:38;;;;;;;40.00;20.77;;;;;;;;;;4961503;28;20692;-78
2022/04/23 11:55:06;;;;;;;41.87;21.90;;;;;;;;;;4957919;28;20668;-78
2022/04/23 11:57:33;;;;;;;37.10;20.10;;;;;;;;;;4959381;28;20579;-78
2022/04/23 12:00:03;;;;;;;39.90;20.90;;;;;;;;;;4964848;28;20205;-79
2022/04/23 12:02:32;;;;;;;38.57;20.77;;;;;;;;;;4961445;28;20225;-78
2022/04/23 12:05:00;;;;;;;33.53;18.33;;;;;;;;;;4950443;28;20222;-78
2022/04/23 12:07:28;;;;;;;35.27;18.53;;;;;;;;;;4947741;28;20743;-78
2022/04/23 12:09:56;;;;;;;32.70;18.27;;;;;;;;;;4951367;28;20269;-79
2022/04/23 12:12:24;;;;;;;32.10;17.33;;;;;;;;;;4948129;28;20818;-78
2022/04/23 12:14:52;;;;;;;34.00;19.00;;;;;;;;;;4955430;28;20661;-78
2022/04/23 12:17:26;;;;;;;32.90;19.57;;;;;;;;;;4961191;28;20691;-78
2022/04/23 12:19:53;;;;;;;36.53;19.00;;;;;;;;;;4954785;28;20293;-78
2022/04/23 12:22:24;;;;;;;35.37;19.87;;;;;;;;;;4951671;28;20320;-78
2022/04/23 12:24:53;;;;;;;36.80;21.13;;;;;;;;;;4949322;28;20330;-77
2022/04/23 12:27:20;;;;;;;34.60;18.80;;;;;;;;;;4966858;28;20205;-79
2022/04/23 12:40:57;;;;;;;34.53;19.57;;;;;;;;;;4964237;28;20225;-78
2022/04/23 12:43:25;;;;;;;35.47;19.90;;;;;;;;;;4961538;28;20217;-82
2022/04/23 12:45:53;;;;;;;35.70;19.20;;;;;;;;;;4964896;28;20237;-81
2022/04/23 12:48:21;;;;;;;36.13;19.93;;;;;;;;;;4962992;28;20240;-81
2022/04/23 12:50:50;;;;;;;38.87;19.83;;;;;;;;;;4962869;28;20312;-80
2022/04/23 12:53:34;;;;;;;37.63;20.23;;;;;;;;;;4962075;28;20225;-80
2022/04/23 12:56:04;;;;;;;38.03;20.47;;;;;;;;;;4962547;28;20373;-78
2022/04/23 12:58:32;;;;;;;37.43;20.33;;;;;;;;;;4961050;28;20206;-78
2022/04/23 13:00:59;;;;;;;35.23;20.73;;;;;;;;;;4964653;28;20233;-82
2022/04/23 13:03:35;;;;;;;33.67;19.07;;;;;;;;;;4960465;28;20649;-79
2022/04/23 13:06:03;;;;;;;35.37;19.47;;;;;;;;;;4961410;28;20204;-79
2022/04/23 13:11:28;;;;;;;35.13;20.20;;;;;;;;;;4961772;28;20419;-79
2022/04/23 13:13:57;;;;;;;38.83;20.23;;;;;;;;;;4958728;28;20696;-76
2022/04/23 13:16:24;;;;;;;35.67;19.97;;;;;;;;;;4957722;28;20225;-77
2022/04/23 13:18:54;;;;;;;34.13;19.30;;;;;;;;;;4959460;28;20699;-78
2022/04/23 13:21:21;;;;;;;36.73;19.40;;;;;;;;;;4955617;28;20240;-82
2022/04/23 13:23:49;;;;;;;34.80;19.40;;;;;;;;;;4959548;28;20226;-76
2022/04/23 13:26:16;;;;;;;37.60;19.13;;;;;;;;;;4957996;28;20252;-76
2022/04/23 13:28:44;;;;;;;32.90;18.97;;;;;;;;;;4955742;28;20586;-75
2022/04/23 13:31:11;;;;;;;31.20;18.30;;;;;;;;;;4949470;28;20929;-74
2022/04/23 13:33:39;;;;;;;32.10;18.67;;;;;;;;;;4946260;28;20260;-74
2022/04/23 13:36:07;;;;;;;31.53;17.40;;;;;;;;;;4947855;28;20356;-75
2022/04/23 13:38:35;;;;;;;31.10;17.27;;;;;;;;;;4953637;28;20202;-75
2022/04/23 13:41:03;;;;;;;29.23;17.27;;;;;;;;;;4948728;28;20259;-75
2022/04/23 13:43:30;;;;;;;29.07;16.97;;;;;;;;;;4950020;28;20291;-75
2022/04/23 13:45:58;;;;;;;30.83;17.73;;;;;;;;;;4943184;28;20229;-74
2022/04/23 13:48:26;;;;;;;30.10;16.47;;;;;;;;;;4943870;28;20256;-74
2022/04/23 13:53:29;;;;;;;28.93;16.40;;;;;;;;;;4999427;28;20924;-75
2022/04/23 13:55:57;;;;;;;27.93;16.17;;;;;;;;;;5001623;28;20279;-77
2022/04/23 13:58:24;;;;;;;31.13;16.23;;;;;;;;;;5004153;28;20224;-75
2022/04/23 14:00:51;;;;;;;26.70;16.07;;;;;;;;;;5009074;28;20235;-76
2022/04/23 14:11:49;;;;;;;25.03;14.97;;;;;;;;;;4965657;28;20234;-75
2022/04/23 14:14:17;;;;;;;26.03;14.97;;;;;;;;;;5008442;28;20856;-76
2022/04/23 14:16:44;;;;;;;23.67;13.90;;;;;;;;;;5002988;28;20208;-75
2022/04/23 14:19:11;;;;;;;22.07;13.73;;;;;;;;;;5010088;28;20236;-74
2022/04/23 14:21:38;;;;;;;22.83;13.90;;;;;;;;;;5007897;28;20223;-75
2022/04/23 14:24:07;;;;;;;21.67;13.77;;;;;;;;;;5002023;28;20224;-75
2022/04/23 14:26:35;;;;;;;22.93;13.57;;;;;;;;;;5006856;28;20209;-74
2022/04/23 14:29:04;;;;;;;22.73;13.63;;;;;;;;;;5002788;28;20205;-77
2022/04/23 14:31:55;;;;;;;24.43;13.63;;;;;;;;;;5008406;28;20323;-76
2022/04/23 14:34:32;;;;;;;23.03;13.80;;;;;;;;;;5001111;28;20816;-76
2022/04/23 14:36:59;;;;;;;20.80;12.87;;;;;;;;;;5005860;28;20682;-76
2022/04/23 14:39:30;;;;;;;25.47;14.37;;;;;;;;;;5002399;28;20224;-75
2022/04/23 14:41:57;;;;;;;23.30;13.00;;;;;;;;;;4996104;28;20738;-75
2022/04/23 14:44:25;;;;;;;22.37;13.37;;;;;;;;;;4999913;28;20232;-75
2022/04/23 14:46:53;;;;;;;24.13;13.37;;;;;;;;;;4999425;28;20208;-75
2022/04/23 14:49:20;;;;;;;22.73;13.60;;;;;;;;;;4996752;28;20228;-75
2022/04/23 14:54:34;;;;;;;23.23;13.73;;;;;;;;;;4999717;28;20692;-76
2022/04/23 14:57:01;;;;;;;25.77;13.13;;;;;;;;;;4991314;28;20500;-75
2022/04/23 14:59:48;;;;;;;23.23;13.33;;;;;;;;;;4996100;28;20287;-76
2022/04/23 15:02:17;;;;;;;20.70;13.07;;;;;;;;;;4992730;28;20236;-75
2022/04/23 15:04:45;;;;;;;20.13;12.87;;;;;;;;;;4997367;28;20691;-75
2022/04/23 15:07:12;;;;;;;21.87;13.83;;;;;;;;;;5000657;28;20643;-74
2022/04/23 15:09:41;;;;;;;22.27;12.77;;;;;;;;;;4997048;28;20208;-75
2022/04/23 15:12:08;;;;;;;20.30;12.53;;;;;;;;;;4997838;28;20753;-75
2022/04/23 15:14:35;;;;;;;20.70;12.87;;;;;;;;;;4994673;28;20201;-75
2022/04/23 15:17:03;;;;;;;20.00;12.60;;;;;;;;;;4988987;28;20212;-75
2022/04/23 15:19:30;;;;;;;20.97;11.87;;;;;;;;;;5004786;28;20216;-75